ZT542 EGKK-GVAC
Flight info
| Callsign | ZT542 |
|---|---|
| Flight time | N/A |
| Altitude | 37000 |
| Route | IMVUR N63 SAM M195 LORKU DCT POZOF DCT LOTEE DCT PINEK DCT TERVA DCT OLBOD DCT BEXAL DCT SAMAR DCT YUSME DCT LIMAL N873 IPERA DCT DIMKI DIMKI1S |
| Aircraft | A320/M-SDE3FGHIRWY/LB1 |
Departure
| Time | 2026-05-05 08:37 |
|---|---|
| Airport | London Gatwick Airport (EGKK) |
Arrival
| Time | N/A |
|---|---|
| Airport | Amílcar Cabral International Airport (GVAC) |
| Time | Latitude | Longitude | Altitude | Speed | Heading |
|---|---|---|---|---|---|
| 2026-05-05 08:00 | 51.15396 | -0.18017 | 205 ft | 0 kts | 167° |
| 2026-05-05 08:26 | 51.15398 | -0.18018 | 210 ft | 2 kts | 168° |
| 2026-05-05 08:27 | 51.15424 | -0.18025 | 219 ft | 4 kts | 176° |
| 2026-05-05 08:27 | 51.15450 | -0.18024 | 219 ft | 4 kts | 196° |
| 2026-05-05 08:27 | 51.15470 | -0.18004 | 218 ft | 3 kts | 255° |
| 2026-05-05 08:27 | 51.15471 | -0.17994 | 221 ft | 0 kts | 257° |
| 2026-05-05 08:31 | 51.15471 | -0.17996 | 221 ft | 2 kts | 257° |
| 2026-05-05 08:31 | 51.15460 | -0.18072 | 210 ft | 9 kts | 257° |
| 2026-05-05 08:31 | 51.15422 | -0.18154 | 213 ft | 11 kts | 193° |
| 2026-05-05 08:31 | 51.15341 | -0.18129 | 214 ft | 13 kts | 168° |
| 2026-05-05 08:32 | 51.15245 | -0.18096 | 210 ft | 15 kts | 167° |
| 2026-05-05 08:32 | 51.15152 | -0.18065 | 217 ft | 12 kts | 175° |
| 2026-05-05 08:32 | 51.15114 | -0.18175 | 220 ft | 14 kts | 261° |
| 2026-05-05 08:32 | 51.15091 | -0.18349 | 212 ft | 18 kts | 257° |
| 2026-05-05 08:33 | 51.15061 | -0.18567 | 210 ft | 25 kts | 258° |
| 2026-05-05 08:33 | 51.15020 | -0.18865 | 210 ft | 28 kts | 257° |
| 2026-05-05 08:33 | 51.14978 | -0.19178 | 213 ft | 30 kts | 257° |
| 2026-05-05 08:33 | 51.14931 | -0.19507 | 214 ft | 32 kts | 258° |
| 2026-05-05 08:34 | 51.14882 | -0.19863 | 219 ft | 34 kts | 257° |
| 2026-05-05 08:34 | 51.14829 | -0.20245 | 209 ft | 35 kts | 258° |
| 2026-05-05 08:34 | 51.14785 | -0.20567 | 219 ft | 28 kts | 257° |
| 2026-05-05 08:34 | 51.14741 | -0.20877 | 221 ft | 30 kts | 257° |
| 2026-05-05 08:35 | 51.14705 | -0.21142 | 211 ft | 14 kts | 257° |
| 2026-05-05 08:35 | 51.14686 | -0.21278 | 214 ft | 14 kts | 256° |
| 2026-05-05 08:35 | 51.14605 | -0.21323 | 214 ft | 15 kts | 165° |
| 2026-05-05 08:35 | 51.14523 | -0.21218 | 212 ft | 15 kts | 109° |
| 2026-05-05 08:36 | 51.14528 | -0.21104 | 217 ft | 0 kts | 77° |
| 2026-05-05 08:36 | 51.14530 | -0.21089 | 216 ft | 14 kts | 77° |
| 2026-05-05 08:36 | 51.14609 | -0.20530 | 212 ft | 86 kts | 78° |
| 2026-05-05 08:37 | 51.14780 | -0.19303 | 214 ft | 139 kts | 77° |
| 2026-05-05 08:37 | 51.14999 | -0.17721 | 643 ft | 147 kts | 75° |
| 2026-05-05 08:37 | 51.15223 | -0.16134 | 1341 ft | 147 kts | 75° |
| 2026-05-05 08:37 | 51.15441 | -0.14534 | 2021 ft | 149 kts | 73° |
| 2026-05-05 08:38 | 51.15677 | -0.12819 | 2369 ft | 169 kts | 73° |
| 2026-05-05 08:38 | 51.15947 | -0.10862 | 2646 ft | 194 kts | 74° |
| 2026-05-05 08:38 | 51.16254 | -0.08643 | 2975 ft | 216 kts | 75° |
| 2026-05-05 08:38 | 51.16661 | -0.06332 | 3002 ft | 215 kts | 59° |
| 2026-05-05 08:39 | 51.17752 | -0.04826 | 3010 ft | 212 kts | 18° |
| 2026-05-05 08:39 | 51.19225 | -0.04732 | 3007 ft | 217 kts | 354° |
| 2026-05-05 08:39 | 51.20708 | -0.05216 | 3005 ft | 218 kts | 348° |
| 2026-05-05 08:39 | 51.22090 | -0.06205 | 3003 ft | 223 kts | 319° |
| 2026-05-05 08:40 | 51.22821 | -0.08430 | 3049 ft | 244 kts | 277° |
| 2026-05-05 08:40 | 51.22653 | -0.11256 | 3611 ft | 267 kts | 261° |
| 2026-05-05 08:40 | 51.22299 | -0.14211 | 4477 ft | 274 kts | 259° |
| 2026-05-05 08:40 | 51.21930 | -0.17213 | 5458 ft | 277 kts | 259° |
| 2026-05-05 08:41 | 51.21559 | -0.20225 | 6492 ft | 277 kts | 260° |
| 2026-05-05 08:41 | 51.21187 | -0.23247 | 7426 ft | 279 kts | 259° |
| 2026-05-05 08:41 | 51.20812 | -0.26299 | 8310 ft | 282 kts | 260° |
| 2026-05-05 08:41 | 51.20433 | -0.29385 | 9189 ft | 286 kts | 259° |
| 2026-05-05 08:42 | 51.20050 | -0.32515 | 10036 ft | 290 kts | 259° |
| 2026-05-05 08:42 | 51.19659 | -0.35689 | 10810 ft | 294 kts | 259° |
| 2026-05-05 08:42 | 51.19260 | -0.38907 | 11568 ft | 297 kts | 259° |
| 2026-05-05 08:42 | 51.18854 | -0.42158 | 12349 ft | 301 kts | 259° |
| 2026-05-05 08:43 | 51.18440 | -0.45452 | 13103 ft | 305 kts | 259° |
| 2026-05-05 08:43 | 51.18020 | -0.48789 | 13846 ft | 309 kts | 259° |
| 2026-05-05 08:43 | 51.17589 | -0.52173 | 14513 ft | 313 kts | 257° |
| 2026-05-05 08:43 | 51.16890 | -0.55510 | 14928 ft | 327 kts | 248° |
| 2026-05-05 08:44 | 51.15989 | -0.58970 | 15061 ft | 349 kts | 247° |
| 2026-05-05 08:44 | 51.15008 | -0.62631 | 15191 ft | 370 kts | 246° |
| 2026-05-05 08:44 | 51.13965 | -0.66489 | 15391 ft | 386 kts | 246° |
| 2026-05-05 08:44 | 51.12893 | -0.70449 | 15909 ft | 392 kts | 246° |
| 2026-05-05 08:45 | 51.11811 | -0.74460 | 16523 ft | 396 kts | 246° |
| 2026-05-05 08:45 | 51.10724 | -0.78505 | 17162 ft | 399 kts | 246° |
| 2026-05-05 08:45 | 51.09841 | -0.81522 | 17598 ft | 401 kts | 242° |
| 2026-05-05 08:45 | 51.08611 | -0.85531 | 18248 ft | 405 kts | 244° |
| 2026-05-05 08:46 | 51.07488 | -0.89669 | 18830 ft | 409 kts | 246° |
| 2026-05-05 08:46 | 51.06423 | -0.93866 | 19411 ft | 411 kts | 247° |
| 2026-05-05 08:46 | 51.05361 | -0.98113 | 19991 ft | 414 kts | 247° |
| 2026-05-05 08:46 | 51.04279 | -1.02365 | 20554 ft | 417 kts | 246° |
| 2026-05-05 08:47 | 51.03163 | -1.06630 | 21078 ft | 419 kts | 246° |
| 2026-05-05 08:47 | 51.02015 | -1.10904 | 21579 ft | 422 kts | 245° |
| 2026-05-05 08:47 | 51.00843 | -1.15196 | 22069 ft | 424 kts | 245° |
| 2026-05-05 08:47 | 50.99657 | -1.19495 | 22557 ft | 427 kts | 245° |
| 2026-05-05 08:48 | 50.98461 | -1.23825 | 23014 ft | 429 kts | 245° |
| 2026-05-05 08:48 | 50.97237 | -1.28151 | 23456 ft | 431 kts | 242° |
| 2026-05-05 08:48 | 50.95668 | -1.32203 | 23837 ft | 432 kts | 232° |
| 2026-05-05 08:48 | 50.93694 | -1.35787 | 24216 ft | 432 kts | 223° |
| 2026-05-05 08:49 | 50.91380 | -1.38827 | 24603 ft | 432 kts | 213° |
| 2026-05-05 08:49 | 50.88874 | -1.41458 | 24994 ft | 432 kts | 212° |
| 2026-05-05 08:49 | 50.86358 | -1.44073 | 25386 ft | 434 kts | 212° |
| 2026-05-05 08:49 | 50.83831 | -1.46690 | 25793 ft | 434 kts | 212° |
| 2026-05-05 08:50 | 50.81302 | -1.49306 | 26197 ft | 435 kts | 212° |
| 2026-05-05 08:50 | 50.78769 | -1.51928 | 26610 ft | 435 kts | 212° |
| 2026-05-05 08:50 | 50.76234 | -1.54550 | 27005 ft | 436 kts | 212° |
| 2026-05-05 08:50 | 50.73699 | -1.57171 | 27399 ft | 436 kts | 212° |
| 2026-05-05 08:51 | 50.71160 | -1.59795 | 27802 ft | 436 kts | 212° |
| 2026-05-05 08:51 | 50.68631 | -1.62407 | 28342 ft | 432 kts | 211° |
| 2026-05-05 08:51 | 50.66129 | -1.64986 | 28912 ft | 428 kts | 211° |
| 2026-05-05 08:51 | 50.63639 | -1.67546 | 29487 ft | 425 kts | 211° |
| 2026-05-05 08:52 | 50.61202 | -1.70044 | 30056 ft | 421 kts | 211° |
| 2026-05-05 08:52 | 50.58757 | -1.72547 | 30515 ft | 419 kts | 211° |
| 2026-05-05 08:52 | 50.56309 | -1.75051 | 30873 ft | 420 kts | 211° |
| 2026-05-05 08:52 | 50.53850 | -1.77564 | 31205 ft | 422 kts | 211° |
| 2026-05-05 08:53 | 50.51387 | -1.80084 | 31526 ft | 424 kts | 211° |
| 2026-05-05 08:53 | 50.48910 | -1.82619 | 31853 ft | 425 kts | 211° |
| 2026-05-05 08:53 | 50.46424 | -1.85159 | 32180 ft | 427 kts | 212° |
| 2026-05-05 08:53 | 50.43928 | -1.87707 | 32505 ft | 429 kts | 212° |
| 2026-05-05 08:54 | 50.41423 | -1.90257 | 32834 ft | 431 kts | 212° |
| 2026-05-05 08:54 | 50.38904 | -1.92811 | 33167 ft | 432 kts | 212° |
| 2026-05-05 08:54 | 50.36376 | -1.95367 | 33533 ft | 433 kts | 212° |
| 2026-05-05 08:54 | 50.33843 | -1.97925 | 33914 ft | 433 kts | 212° |
| 2026-05-05 08:55 | 50.31311 | -2.00480 | 34244 ft | 434 kts | 212° |
| 2026-05-05 08:55 | 50.28770 | -2.03044 | 34553 ft | 434 kts | 212° |
| 2026-05-05 08:55 | 50.26231 | -2.05610 | 34862 ft | 435 kts | 212° |
| 2026-05-05 08:55 | 50.23687 | -2.08174 | 35162 ft | 436 kts | 212° |
| 2026-05-05 08:56 | 50.21127 | -2.10714 | 35440 ft | 437 kts | 212° |
| 2026-05-05 08:56 | 50.18547 | -2.13231 | 35715 ft | 438 kts | 211° |
| 2026-05-05 08:56 | 50.15958 | -2.15734 | 35988 ft | 438 kts | 211° |
| 2026-05-05 08:56 | 50.13359 | -2.18238 | 36250 ft | 439 kts | 211° |
| 2026-05-05 08:57 | 50.10757 | -2.20746 | 36519 ft | 440 kts | 211° |
| 2026-05-05 08:57 | 50.08152 | -2.23261 | 36768 ft | 441 kts | 212° |
| 2026-05-05 08:57 | 50.05539 | -2.25785 | 36952 ft | 443 kts | 212° |
| 2026-05-05 08:58 | 50.00273 | -2.30879 | 36984 ft | 448 kts | 212° |
| 2026-05-05 08:58 | 49.94972 | -2.36003 | 36984 ft | 449 kts | 211° |
| 2026-05-05 08:59 | 49.89357 | -2.40244 | 36978 ft | 449 kts | 204° |
| 2026-05-05 08:59 | 49.83657 | -2.44223 | 36975 ft | 449 kts | 204° |
| 2026-05-05 09:00 | 49.77951 | -2.48194 | 36979 ft | 449 kts | 204° |
| 2026-05-05 09:00 | 49.72246 | -2.52162 | 36985 ft | 450 kts | 204° |
| 2026-05-05 09:01 | 49.66532 | -2.56130 | 36986 ft | 450 kts | 204° |
| 2026-05-05 09:01 | 49.61792 | -2.59421 | 36987 ft | 449 kts | 204° |
| 2026-05-05 09:02 | 49.56082 | -2.63363 | 36994 ft | 450 kts | 204° |
| 2026-05-05 09:02 | 49.50376 | -2.67288 | 36993 ft | 449 kts | 204° |
| 2026-05-05 09:03 | 49.44667 | -2.71196 | 36995 ft | 449 kts | 204° |
| 2026-05-05 09:03 | 49.38963 | -2.75104 | 36997 ft | 449 kts | 204° |
| 2026-05-05 09:04 | 49.33267 | -2.78999 | 36994 ft | 448 kts | 203° |
| 2026-05-05 09:04 | 49.27571 | -2.82892 | 36994 ft | 448 kts | 203° |
| 2026-05-05 09:05 | 49.21866 | -2.86764 | 36993 ft | 448 kts | 203° |
| 2026-05-05 09:05 | 49.16173 | -2.90614 | 36986 ft | 448 kts | 203° |
| 2026-05-05 09:06 | 49.10473 | -2.94465 | 36981 ft | 448 kts | 203° |
| 2026-05-05 09:06 | 49.04768 | -2.98319 | 36981 ft | 448 kts | 203° |
| 2026-05-05 09:07 | 48.99057 | -3.02158 | 36978 ft | 449 kts | 203° |
| 2026-05-05 09:07 | 48.93338 | -3.05995 | 36982 ft | 449 kts | 203° |
| 2026-05-05 09:08 | 48.87608 | -3.09837 | 36983 ft | 450 kts | 203° |
| 2026-05-05 09:08 | 48.81886 | -3.13667 | 36981 ft | 449 kts | 203° |
| 2026-05-05 09:09 | 48.76158 | -3.17474 | 36977 ft | 450 kts | 203° |
| 2026-05-05 09:09 | 48.70423 | -3.21277 | 36979 ft | 450 kts | 203° |
| 2026-05-05 09:10 | 48.64684 | -3.25091 | 36984 ft | 451 kts | 203° |
| 2026-05-05 09:10 | 48.58932 | -3.28901 | 36984 ft | 452 kts | 202° |
| 2026-05-05 09:11 | 48.53174 | -3.32694 | 36982 ft | 452 kts | 202° |
| 2026-05-05 09:11 | 48.47411 | -3.36477 | 36974 ft | 452 kts | 202° |
| 2026-05-05 09:12 | 48.41650 | -3.40259 | 36976 ft | 452 kts | 202° |
| 2026-05-05 09:12 | 48.35883 | -3.44049 | 36971 ft | 453 kts | 202° |
| 2026-05-05 09:13 | 48.30106 | -3.47826 | 36977 ft | 453 kts | 202° |
| 2026-05-05 09:13 | 48.24321 | -3.51581 | 36972 ft | 453 kts | 202° |
| 2026-05-05 09:14 | 48.18535 | -3.55337 | 36982 ft | 453 kts | 202° |
| 2026-05-05 09:14 | 48.12742 | -3.59094 | 36974 ft | 454 kts | 202° |
| 2026-05-05 09:15 | 48.06946 | -3.62851 | 36964 ft | 454 kts | 202° |
| 2026-05-05 09:15 | 48.01146 | -3.66599 | 36972 ft | 454 kts | 202° |
| 2026-05-05 09:16 | 47.95339 | -3.70335 | 36964 ft | 455 kts | 202° |
| 2026-05-05 09:16 | 47.89522 | -3.74060 | 36969 ft | 455 kts | 202° |
| 2026-05-05 09:17 | 47.83704 | -3.77780 | 36969 ft | 455 kts | 202° |
| 2026-05-05 09:17 | 47.77879 | -3.81505 | 36974 ft | 456 kts | 202° |
| 2026-05-05 09:18 | 47.72054 | -3.85221 | 36968 ft | 456 kts | 202° |
| 2026-05-05 09:18 | 47.66221 | -3.88921 | 36975 ft | 456 kts | 202° |
| 2026-05-05 09:19 | 47.60384 | -3.92618 | 36987 ft | 456 kts | 202° |
| 2026-05-05 09:19 | 47.54542 | -3.96322 | 36974 ft | 457 kts | 202° |
| 2026-05-05 09:20 | 47.48701 | -4.00012 | 36978 ft | 457 kts | 202° |
| 2026-05-05 09:20 | 47.42845 | -4.03689 | 36982 ft | 457 kts | 201° |
| 2026-05-05 09:21 | 47.36988 | -4.07369 | 36984 ft | 458 kts | 202° |
| 2026-05-05 09:21 | 47.31127 | -4.11043 | 36985 ft | 458 kts | 202° |
| 2026-05-05 09:22 | 47.25295 | -4.14690 | 36985 ft | 458 kts | 202° |
| 2026-05-05 09:22 | 47.19387 | -4.18374 | 36986 ft | 458 kts | 202° |
| 2026-05-05 09:23 | 47.13509 | -4.22022 | 36984 ft | 459 kts | 202° |
| 2026-05-05 09:23 | 47.07664 | -4.25640 | 36986 ft | 459 kts | 202° |
| 2026-05-05 09:24 | 47.01812 | -4.29404 | 36987 ft | 459 kts | 204° |
| 2026-05-05 09:24 | 46.96041 | -4.33420 | 36987 ft | 460 kts | 205° |
| 2026-05-05 09:25 | 46.90269 | -4.37459 | 36988 ft | 460 kts | 205° |
| 2026-05-05 09:25 | 46.84478 | -4.41421 | 36987 ft | 460 kts | 204° |
| 2026-05-05 09:26 | 46.78669 | -4.45344 | 36989 ft | 460 kts | 204° |
| 2026-05-05 09:26 | 46.72862 | -4.49267 | 36990 ft | 460 kts | 204° |
| 2026-05-05 09:27 | 46.67060 | -4.53197 | 36989 ft | 460 kts | 204° |
| 2026-05-05 09:27 | 46.61254 | -4.57111 | 36990 ft | 460 kts | 204° |
| 2026-05-05 09:28 | 46.55444 | -4.61014 | 36990 ft | 460 kts | 204° |
| 2026-05-05 09:28 | 46.49631 | -4.64910 | 36993 ft | 460 kts | 204° |
| 2026-05-05 09:29 | 46.43817 | -4.68804 | 36992 ft | 460 kts | 205° |
| 2026-05-05 09:29 | 46.37998 | -4.72690 | 36991 ft | 461 kts | 204° |
| 2026-05-05 09:30 | 46.32169 | -4.76570 | 36992 ft | 461 kts | 205° |
| 2026-05-05 09:30 | 46.26339 | -4.80434 | 36997 ft | 461 kts | 205° |
| 2026-05-05 09:31 | 46.20508 | -4.84302 | 36998 ft | 461 kts | 205° |
| 2026-05-05 09:31 | 46.14675 | -4.88167 | 37001 ft | 461 kts | 205° |
| 2026-05-05 09:32 | 46.08841 | -4.92019 | 37002 ft | 461 kts | 205° |
| 2026-05-05 09:32 | 46.03006 | -4.95867 | 37000 ft | 461 kts | 205° |
| 2026-05-05 09:33 | 45.97170 | -4.99698 | 37004 ft | 461 kts | 205° |
| 2026-05-05 09:33 | 45.91334 | -5.03525 | 37006 ft | 461 kts | 205° |
| 2026-05-05 09:34 | 45.85492 | -5.07353 | 37006 ft | 461 kts | 205° |
| 2026-05-05 09:34 | 45.79648 | -5.11154 | 37007 ft | 461 kts | 205° |
| 2026-05-05 09:35 | 45.73802 | -5.14943 | 37009 ft | 461 kts | 205° |
| 2026-05-05 09:35 | 45.65033 | -5.20631 | 37006 ft | 461 kts | 205° |
| 2026-05-05 09:36 | 45.59190 | -5.24424 | 37011 ft | 461 kts | 205° |
| 2026-05-05 09:36 | 45.53342 | -5.28205 | 37012 ft | 461 kts | 205° |
| 2026-05-05 09:37 | 45.47489 | -5.31980 | 37010 ft | 461 kts | 205° |
| 2026-05-05 09:37 | 45.41638 | -5.35732 | 37009 ft | 462 kts | 205° |
| 2026-05-05 09:38 | 45.35780 | -5.39488 | 37013 ft | 462 kts | 205° |
| 2026-05-05 09:38 | 45.29924 | -5.43242 | 37012 ft | 462 kts | 205° |
| 2026-05-05 09:39 | 45.24063 | -5.46988 | 37010 ft | 462 kts | 205° |
| 2026-05-05 09:39 | 45.18194 | -5.50724 | 37012 ft | 462 kts | 205° |
| 2026-05-05 09:40 | 45.12320 | -5.54458 | 37014 ft | 463 kts | 205° |
| 2026-05-05 09:40 | 45.06436 | -5.58174 | 37013 ft | 463 kts | 205° |
| 2026-05-05 09:41 | 45.00549 | -5.61895 | 37018 ft | 463 kts | 205° |
| 2026-05-05 09:41 | 44.94666 | -5.65615 | 37015 ft | 464 kts | 205° |
| 2026-05-05 09:42 | 44.88772 | -5.69328 | 37022 ft | 464 kts | 205° |
| 2026-05-05 09:42 | 44.83870 | -5.72409 | 37022 ft | 464 kts | 205° |
| 2026-05-05 09:43 | 44.77972 | -5.76112 | 37029 ft | 464 kts | 205° |
| 2026-05-05 09:43 | 44.72066 | -5.79806 | 37026 ft | 464 kts | 205° |
| 2026-05-05 09:44 | 44.66212 | -5.83616 | 37019 ft | 463 kts | 211° |
| 2026-05-05 09:44 | 44.60954 | -5.88788 | 37027 ft | 461 kts | 218° |
| 2026-05-05 09:45 | 44.55802 | -5.94161 | 37025 ft | 461 kts | 218° |
| 2026-05-05 09:45 | 44.50643 | -5.99508 | 37035 ft | 461 kts | 218° |
| 2026-05-05 09:46 | 44.45481 | -6.04853 | 37035 ft | 461 kts | 218° |
| 2026-05-05 09:46 | 44.40311 | -6.10193 | 37038 ft | 461 kts | 218° |
| 2026-05-05 09:47 | 44.35140 | -6.15509 | 37033 ft | 461 kts | 218° |
| 2026-05-05 09:47 | 44.29970 | -6.20817 | 37038 ft | 461 kts | 218° |
| 2026-05-05 09:48 | 44.24801 | -6.26131 | 37041 ft | 461 kts | 218° |
| 2026-05-05 09:48 | 44.19636 | -6.31427 | 37040 ft | 461 kts | 218° |
| 2026-05-05 09:49 | 44.14457 | -6.36702 | 37043 ft | 461 kts | 218° |
| 2026-05-05 09:49 | 44.09281 | -6.41972 | 37041 ft | 461 kts | 218° |
| 2026-05-05 09:50 | 44.04103 | -6.47241 | 37045 ft | 461 kts | 218° |
| 2026-05-05 09:50 | 43.98921 | -6.52487 | 37047 ft | 461 kts | 218° |
| 2026-05-05 09:51 | 43.93776 | -6.57698 | 37047 ft | 461 kts | 218° |
| 2026-05-05 09:51 | 43.88597 | -6.62930 | 37054 ft | 461 kts | 218° |
| 2026-05-05 09:52 | 43.83412 | -6.68149 | 37057 ft | 460 kts | 218° |
| 2026-05-05 09:52 | 43.78232 | -6.73362 | 37053 ft | 460 kts | 218° |
| 2026-05-05 09:53 | 43.73045 | -6.78565 | 37059 ft | 460 kts | 218° |
| 2026-05-05 09:53 | 43.67855 | -6.83745 | 37057 ft | 460 kts | 218° |
| 2026-05-05 09:54 | 43.62662 | -6.88925 | 37060 ft | 460 kts | 218° |
| 2026-05-05 09:54 | 43.57480 | -6.94111 | 37062 ft | 460 kts | 219° |
| 2026-05-05 09:55 | 43.52289 | -6.99279 | 37067 ft | 460 kts | 218° |
| 2026-05-05 09:55 | 43.47088 | -7.04424 | 37069 ft | 460 kts | 218° |
| 2026-05-05 09:56 | 43.41888 | -7.09563 | 37070 ft | 460 kts | 219° |
| 2026-05-05 09:56 | 43.36689 | -7.14702 | 37070 ft | 460 kts | 219° |
| 2026-05-05 09:57 | 43.31490 | -7.19825 | 37075 ft | 460 kts | 219° |
| 2026-05-05 09:57 | 43.26286 | -7.24941 | 37069 ft | 460 kts | 219° |
| 2026-05-05 09:58 | 43.21078 | -7.30054 | 37075 ft | 460 kts | 219° |
| 2026-05-05 09:58 | 43.15870 | -7.35159 | 37082 ft | 460 kts | 219° |
| 2026-05-05 09:59 | 43.10660 | -7.40255 | 37083 ft | 460 kts | 219° |
| 2026-05-05 09:59 | 43.05447 | -7.45335 | 37082 ft | 460 kts | 219° |
| 2026-05-05 10:00 | 43.00228 | -7.50415 | 37093 ft | 460 kts | 219° |
| 2026-05-05 10:00 | 42.95008 | -7.55487 | 37093 ft | 460 kts | 219° |
| 2026-05-05 10:01 | 42.89788 | -7.60543 | 37088 ft | 460 kts | 219° |
| 2026-05-05 10:01 | 42.84560 | -7.65591 | 37090 ft | 460 kts | 219° |
| 2026-05-05 10:02 | 42.79338 | -7.70628 | 37094 ft | 460 kts | 219° |
| 2026-05-05 10:02 | 42.74107 | -7.75667 | 37093 ft | 460 kts | 219° |
| 2026-05-05 10:03 | 42.68891 | -7.80687 | 37091 ft | 460 kts | 219° |
| 2026-05-05 10:03 | 42.63666 | -7.85697 | 37093 ft | 459 kts | 219° |
| 2026-05-05 10:04 | 42.58438 | -7.90693 | 37085 ft | 459 kts | 219° |
| 2026-05-05 10:04 | 42.53217 | -7.95676 | 37098 ft | 459 kts | 219° |
| 2026-05-05 10:05 | 42.47995 | -8.00658 | 37104 ft | 459 kts | 219° |
| 2026-05-05 10:05 | 42.42775 | -8.05631 | 37103 ft | 459 kts | 219° |
| 2026-05-05 10:06 | 42.37551 | -8.10592 | 37099 ft | 458 kts | 219° |
| 2026-05-05 10:06 | 42.32323 | -8.15533 | 37098 ft | 458 kts | 219° |
| 2026-05-05 10:07 | 42.27097 | -8.20459 | 37097 ft | 458 kts | 219° |
| 2026-05-05 10:07 | 42.21868 | -8.25390 | 37095 ft | 458 kts | 219° |
| 2026-05-05 10:08 | 42.16679 | -8.30284 | 37097 ft | 458 kts | 219° |
| 2026-05-05 10:08 | 42.11457 | -8.35197 | 37098 ft | 458 kts | 219° |
| 2026-05-05 10:09 | 42.06199 | -8.40123 | 37099 ft | 458 kts | 219° |
| 2026-05-05 10:09 | 42.00965 | -8.45010 | 37101 ft | 458 kts | 219° |
| 2026-05-05 10:10 | 41.95743 | -8.49886 | 37101 ft | 457 kts | 219° |
| 2026-05-05 10:10 | 41.90549 | -8.54724 | 37107 ft | 457 kts | 219° |
| 2026-05-05 10:11 | 41.85311 | -8.59560 | 37105 ft | 458 kts | 216° |
| 2026-05-05 10:11 | 41.79674 | -8.63630 | 37108 ft | 461 kts | 212° |
| 2026-05-05 10:12 | 41.74003 | -8.67643 | 37108 ft | 460 kts | 212° |
| 2026-05-05 10:12 | 41.68343 | -8.71645 | 37108 ft | 460 kts | 212° |
| 2026-05-05 10:13 | 41.62678 | -8.75633 | 37110 ft | 460 kts | 212° |
| 2026-05-05 10:13 | 41.57025 | -8.79613 | 37112 ft | 459 kts | 213° |
| 2026-05-05 10:14 | 41.51375 | -8.83587 | 37119 ft | 459 kts | 213° |
| 2026-05-05 10:14 | 41.45729 | -8.87546 | 37125 ft | 458 kts | 213° |
| 2026-05-05 10:15 | 41.40085 | -8.91490 | 37138 ft | 458 kts | 213° |
| 2026-05-05 10:15 | 41.34443 | -8.95424 | 37136 ft | 458 kts | 213° |
| 2026-05-05 10:16 | 41.28804 | -8.99351 | 37129 ft | 457 kts | 213° |
| 2026-05-05 10:16 | 41.23177 | -9.03274 | 37131 ft | 457 kts | 213° |
| 2026-05-05 10:17 | 41.17546 | -9.07179 | 37123 ft | 456 kts | 213° |
| 2026-05-05 10:17 | 41.11924 | -9.11063 | 37129 ft | 456 kts | 213° |
| 2026-05-05 10:18 | 41.06305 | -9.14951 | 37126 ft | 455 kts | 213° |
| 2026-05-05 10:18 | 41.00700 | -9.18824 | 37130 ft | 454 kts | 213° |
| 2026-05-05 10:19 | 40.95096 | -9.22689 | 37135 ft | 454 kts | 213° |
| 2026-05-05 10:19 | 40.89499 | -9.26539 | 37131 ft | 453 kts | 213° |
| 2026-05-05 10:20 | 40.83911 | -9.30368 | 37132 ft | 452 kts | 214° |
| 2026-05-05 10:20 | 40.78331 | -9.34182 | 37132 ft | 451 kts | 214° |
| 2026-05-05 10:21 | 40.72760 | -9.37990 | 37137 ft | 450 kts | 214° |
| 2026-05-05 10:21 | 40.67202 | -9.41780 | 37141 ft | 450 kts | 214° |
| 2026-05-05 10:22 | 40.61647 | -9.45558 | 37138 ft | 449 kts | 214° |
| 2026-05-05 10:22 | 40.56107 | -9.49329 | 37138 ft | 448 kts | 214° |
| 2026-05-05 10:23 | 40.50571 | -9.53087 | 37138 ft | 447 kts | 213° |
| 2026-05-05 10:23 | 40.45042 | -9.56828 | 37139 ft | 447 kts | 213° |
| 2026-05-05 10:24 | 40.39370 | -9.60245 | 37140 ft | 452 kts | 207° |
| 2026-05-05 10:24 | 40.34467 | -9.62651 | 37140 ft | 452 kts | 207° |
| 2026-05-05 10:25 | 40.28578 | -9.65533 | 37145 ft | 452 kts | 207° |
| 2026-05-05 10:25 | 40.22692 | -9.68414 | 37146 ft | 451 kts | 207° |
| 2026-05-05 10:26 | 40.16813 | -9.71297 | 37149 ft | 451 kts | 207° |
| 2026-05-05 10:26 | 40.10940 | -9.74161 | 37150 ft | 451 kts | 207° |
| 2026-05-05 10:27 | 40.05062 | -9.77014 | 37151 ft | 450 kts | 207° |
| 2026-05-05 10:27 | 39.99196 | -9.79866 | 37153 ft | 450 kts | 207° |
| 2026-05-05 10:28 | 39.93336 | -9.82720 | 37152 ft | 449 kts | 207° |
| 2026-05-05 10:28 | 39.87473 | -9.85566 | 37153 ft | 449 kts | 206° |
| 2026-05-05 10:29 | 39.81619 | -9.88391 | 37156 ft | 449 kts | 206° |
| 2026-05-05 10:29 | 39.75766 | -9.91210 | 37156 ft | 448 kts | 206° |
| 2026-05-05 10:30 | 39.69916 | -9.94024 | 37160 ft | 448 kts | 206° |
| 2026-05-05 10:30 | 39.64077 | -9.96831 | 37161 ft | 447 kts | 206° |
| 2026-05-05 10:31 | 39.58237 | -9.99632 | 37166 ft | 447 kts | 206° |
| 2026-05-05 10:31 | 39.52407 | -10.02431 | 37167 ft | 447 kts | 206° |
| 2026-05-05 10:32 | 39.46581 | -10.05216 | 37166 ft | 446 kts | 206° |
| 2026-05-05 10:32 | 39.40758 | -10.07990 | 37176 ft | 446 kts | 206° |
| 2026-05-05 10:33 | 39.34974 | -10.10742 | 37174 ft | 445 kts | 206° |
| 2026-05-05 10:33 | 39.29165 | -10.13509 | 37177 ft | 445 kts | 206° |
| 2026-05-05 10:34 | 39.23358 | -10.16268 | 37174 ft | 444 kts | 206° |
| 2026-05-05 10:34 | 39.17555 | -10.19009 | 37180 ft | 444 kts | 206° |
| 2026-05-05 10:35 | 39.11758 | -10.21750 | 37178 ft | 443 kts | 206° |
| 2026-05-05 10:35 | 39.05971 | -10.24488 | 37181 ft | 443 kts | 206° |
| 2026-05-05 10:36 | 39.00192 | -10.27214 | 37182 ft | 442 kts | 206° |
| 2026-05-05 10:36 | 38.94417 | -10.29939 | 37180 ft | 442 kts | 206° |
| 2026-05-05 10:37 | 38.88650 | -10.32643 | 37185 ft | 441 kts | 206° |
| 2026-05-05 10:37 | 38.82884 | -10.35339 | 37186 ft | 440 kts | 206° |
| 2026-05-05 10:38 | 38.77130 | -10.38025 | 37184 ft | 439 kts | 206° |
| 2026-05-05 10:38 | 38.71394 | -10.40713 | 37188 ft | 439 kts | 206° |
| 2026-05-05 10:39 | 38.65659 | -10.43384 | 37189 ft | 438 kts | 206° |
| 2026-05-05 10:39 | 38.59939 | -10.46050 | 37189 ft | 437 kts | 206° |
| 2026-05-05 10:40 | 38.54223 | -10.48711 | 37189 ft | 437 kts | 206° |
| 2026-05-05 10:40 | 38.48513 | -10.51366 | 37190 ft | 436 kts | 206° |
| 2026-05-05 10:41 | 38.42812 | -10.54012 | 37192 ft | 436 kts | 206° |
| 2026-05-05 10:41 | 38.37113 | -10.56640 | 37188 ft | 435 kts | 206° |
| 2026-05-05 10:42 | 38.28565 | -10.60583 | 37190 ft | 435 kts | 206° |
| 2026-05-05 10:43 | 38.22882 | -10.63205 | 37192 ft | 435 kts | 206° |
| 2026-05-05 10:43 | 38.17196 | -10.65826 | 37191 ft | 434 kts | 206° |
| 2026-05-05 10:44 | 38.11475 | -10.68336 | 37188 ft | 436 kts | 203° |
| 2026-05-05 10:44 | 38.05627 | -10.70468 | 37191 ft | 438 kts | 201° |
| 2026-05-05 10:45 | 37.99751 | -10.72503 | 37191 ft | 437 kts | 201° |
| 2026-05-05 10:45 | 37.93898 | -10.74600 | 37190 ft | 437 kts | 202° |
| 2026-05-05 10:46 | 37.88063 | -10.76742 | 37192 ft | 436 kts | 202° |
| 2026-05-05 10:46 | 37.82234 | -10.78881 | 37194 ft | 436 kts | 202° |
| 2026-05-05 10:47 | 37.76400 | -10.81005 | 37197 ft | 436 kts | 201° |
| 2026-05-05 10:47 | 37.70607 | -10.83104 | 37196 ft | 436 kts | 201° |
| 2026-05-05 10:48 | 37.64784 | -10.85218 | 37201 ft | 435 kts | 201° |
| 2026-05-05 10:48 | 37.58925 | -10.87347 | 37199 ft | 435 kts | 201° |
| 2026-05-05 10:49 | 37.53145 | -10.89440 | 37196 ft | 435 kts | 201° |
| 2026-05-05 10:49 | 37.47334 | -10.91544 | 37199 ft | 434 kts | 201° |
| 2026-05-05 10:50 | 37.41525 | -10.93631 | 37192 ft | 434 kts | 201° |
| 2026-05-05 10:50 | 37.35722 | -10.95717 | 37196 ft | 434 kts | 201° |
| 2026-05-05 10:51 | 37.29919 | -10.97805 | 37198 ft | 434 kts | 201° |
| 2026-05-05 10:51 | 37.24114 | -10.99888 | 37196 ft | 434 kts | 201° |
| 2026-05-05 10:52 | 37.18307 | -11.01961 | 37198 ft | 434 kts | 201° |
| 2026-05-05 10:52 | 37.12494 | -11.04041 | 37197 ft | 434 kts | 201° |
| 2026-05-05 10:53 | 37.06686 | -11.06127 | 37195 ft | 435 kts | 201° |
| 2026-05-05 10:53 | 37.00869 | -11.08208 | 37197 ft | 435 kts | 200° |
| 2026-05-05 10:54 | 36.95047 | -11.10277 | 37197 ft | 435 kts | 200° |
| 2026-05-05 10:54 | 36.89222 | -11.12345 | 37196 ft | 435 kts | 200° |
| 2026-05-05 10:55 | 36.83396 | -11.14418 | 37197 ft | 435 kts | 200° |
| 2026-05-05 10:55 | 36.77572 | -11.16483 | 37193 ft | 435 kts | 200° |
| 2026-05-05 10:56 | 36.71745 | -11.18542 | 37205 ft | 435 kts | 200° |
| 2026-05-05 10:56 | 36.65919 | -11.20593 | 37209 ft | 435 kts | 200° |
| 2026-05-05 10:57 | 36.60105 | -11.22649 | 37206 ft | 434 kts | 200° |
| 2026-05-05 10:57 | 36.54305 | -11.24700 | 37204 ft | 433 kts | 200° |
| 2026-05-05 10:58 | 36.48512 | -11.26744 | 37205 ft | 432 kts | 200° |
| 2026-05-05 10:58 | 36.42723 | -11.28777 | 37207 ft | 432 kts | 200° |
| 2026-05-05 10:59 | 36.36940 | -11.30795 | 37202 ft | 432 kts | 200° |
| 2026-05-05 10:59 | 36.31161 | -11.32819 | 37204 ft | 431 kts | 200° |
| 2026-05-05 11:00 | 36.25388 | -11.34833 | 37201 ft | 431 kts | 200° |
| 2026-05-05 11:00 | 36.19615 | -11.36841 | 37200 ft | 431 kts | 200° |
| 2026-05-05 11:01 | 36.13843 | -11.38854 | 37197 ft | 431 kts | 200° |
| 2026-05-05 11:01 | 36.08073 | -11.40861 | 37196 ft | 431 kts | 200° |
| 2026-05-05 11:02 | 36.02289 | -11.42866 | 37195 ft | 431 kts | 200° |
| 2026-05-05 11:02 | 35.96554 | -11.44990 | 37194 ft | 428 kts | 207° |
| 2026-05-05 11:03 | 35.91248 | -11.48208 | 37198 ft | 425 kts | 211° |
| 2026-05-05 11:03 | 35.85978 | -11.51508 | 37199 ft | 425 kts | 211° |
| 2026-05-05 11:04 | 35.80703 | -11.54802 | 37200 ft | 425 kts | 211° |
| 2026-05-05 11:04 | 35.75413 | -11.58091 | 37190 ft | 426 kts | 211° |
| 2026-05-05 11:05 | 35.70129 | -11.61378 | 37191 ft | 426 kts | 211° |
| 2026-05-05 11:05 | 35.64841 | -11.64665 | 37195 ft | 426 kts | 211° |
| 2026-05-05 11:06 | 35.59541 | -11.67951 | 37198 ft | 427 kts | 211° |
| 2026-05-05 11:06 | 35.54236 | -11.71236 | 37189 ft | 427 kts | 211° |
| 2026-05-05 11:07 | 35.48930 | -11.74519 | 37190 ft | 427 kts | 211° |
| 2026-05-05 11:07 | 35.44510 | -11.77247 | 37197 ft | 428 kts | 210° |
| 2026-05-05 11:08 | 35.39185 | -11.80521 | 37201 ft | 428 kts | 210° |
| 2026-05-05 11:08 | 35.33859 | -11.83794 | 37192 ft | 428 kts | 210° |
| 2026-05-05 11:09 | 35.28531 | -11.87068 | 37202 ft | 429 kts | 210° |
| 2026-05-05 11:09 | 35.23199 | -11.90352 | 37196 ft | 429 kts | 210° |
| 2026-05-05 11:10 | 35.17863 | -11.93624 | 37196 ft | 429 kts | 210° |
| 2026-05-05 11:10 | 35.12526 | -11.96893 | 37195 ft | 429 kts | 210° |
| 2026-05-05 11:11 | 35.07185 | -12.00159 | 37197 ft | 429 kts | 210° |
| 2026-05-05 11:11 | 35.01841 | -12.03418 | 37195 ft | 429 kts | 210° |
| 2026-05-05 11:12 | 34.96489 | -12.06663 | 37196 ft | 430 kts | 210° |
| 2026-05-05 11:12 | 34.91141 | -12.09914 | 37197 ft | 430 kts | 210° |
| 2026-05-05 11:13 | 34.85788 | -12.13169 | 37194 ft | 430 kts | 210° |
| 2026-05-05 11:13 | 34.80441 | -12.16417 | 37193 ft | 430 kts | 210° |
| 2026-05-05 11:14 | 34.75090 | -12.19656 | 37193 ft | 430 kts | 210° |
| 2026-05-05 11:14 | 34.69740 | -12.22897 | 37189 ft | 430 kts | 210° |
| 2026-05-05 11:15 | 34.64387 | -12.26132 | 37189 ft | 430 kts | 210° |
| 2026-05-05 11:15 | 34.59028 | -12.29362 | 37189 ft | 430 kts | 210° |
| 2026-05-05 11:16 | 34.53671 | -12.32589 | 37187 ft | 430 kts | 209° |
| 2026-05-05 11:16 | 34.48312 | -12.35808 | 37187 ft | 430 kts | 209° |
| 2026-05-05 11:17 | 34.42946 | -12.39028 | 37189 ft | 430 kts | 209° |
| 2026-05-05 11:17 | 34.37589 | -12.42238 | 37184 ft | 430 kts | 209° |
| 2026-05-05 11:18 | 34.32233 | -12.45455 | 37190 ft | 430 kts | 210° |
| 2026-05-05 11:18 | 34.26869 | -12.48666 | 37183 ft | 430 kts | 209° |
| 2026-05-05 11:19 | 34.21512 | -12.51862 | 37183 ft | 430 kts | 209° |
| 2026-05-05 11:19 | 34.16149 | -12.55059 | 37186 ft | 430 kts | 209° |
| 2026-05-05 11:20 | 34.10789 | -12.58247 | 37183 ft | 430 kts | 209° |
| 2026-05-05 11:20 | 34.05427 | -12.61430 | 37182 ft | 430 kts | 209° |
| 2026-05-05 11:21 | 34.00100 | -12.64597 | 37183 ft | 430 kts | 209° |
| 2026-05-05 11:21 | 33.94738 | -12.67778 | 37185 ft | 430 kts | 209° |
| 2026-05-05 11:22 | 33.89372 | -12.70951 | 37183 ft | 430 kts | 209° |
| 2026-05-05 11:22 | 33.84008 | -12.74120 | 37176 ft | 430 kts | 209° |
| 2026-05-05 11:23 | 33.78643 | -12.77287 | 37179 ft | 430 kts | 209° |
| 2026-05-05 11:23 | 33.73279 | -12.80457 | 37176 ft | 430 kts | 209° |
| 2026-05-05 11:24 | 33.67909 | -12.83610 | 37180 ft | 430 kts | 209° |
| 2026-05-05 11:24 | 33.62542 | -12.86765 | 37179 ft | 429 kts | 209° |
| 2026-05-05 11:25 | 33.57179 | -12.89917 | 37178 ft | 429 kts | 209° |
| 2026-05-05 11:25 | 33.51814 | -12.93067 | 37176 ft | 429 kts | 209° |
| 2026-05-05 11:26 | 33.46455 | -12.96205 | 37173 ft | 429 kts | 209° |
| 2026-05-05 11:26 | 33.41089 | -12.99337 | 37176 ft | 429 kts | 209° |
| 2026-05-05 11:27 | 33.35719 | -13.02461 | 37174 ft | 429 kts | 209° |
| 2026-05-05 11:27 | 33.30358 | -13.05597 | 37175 ft | 429 kts | 209° |
| 2026-05-05 11:28 | 33.24993 | -13.08726 | 37175 ft | 429 kts | 209° |
| 2026-05-05 11:28 | 33.19624 | -13.11847 | 37172 ft | 429 kts | 209° |
| 2026-05-05 11:29 | 33.14254 | -13.14962 | 37177 ft | 429 kts | 209° |
| 2026-05-05 11:29 | 33.08879 | -13.18073 | 37175 ft | 429 kts | 209° |
| 2026-05-05 11:30 | 33.03507 | -13.21185 | 37170 ft | 429 kts | 209° |
| 2026-05-05 11:30 | 32.98126 | -13.24293 | 37170 ft | 429 kts | 209° |
| 2026-05-05 11:31 | 32.92747 | -13.27399 | 37174 ft | 430 kts | 209° |
| 2026-05-05 11:31 | 32.87361 | -13.30503 | 37172 ft | 430 kts | 209° |
| 2026-05-05 11:32 | 32.81963 | -13.33609 | 37172 ft | 430 kts | 209° |
| 2026-05-05 11:32 | 32.76573 | -13.36706 | 37174 ft | 431 kts | 209° |
| 2026-05-05 11:33 | 32.71183 | -13.39805 | 37177 ft | 430 kts | 209° |
| 2026-05-05 11:33 | 32.65791 | -13.42893 | 37169 ft | 430 kts | 209° |
| 2026-05-05 11:34 | 32.60412 | -13.45977 | 37171 ft | 429 kts | 210° |
| 2026-05-05 11:34 | 32.55035 | -13.49055 | 37171 ft | 429 kts | 210° |
| 2026-05-05 11:35 | 32.49674 | -13.52124 | 37170 ft | 428 kts | 210° |
| 2026-05-05 11:35 | 32.44315 | -13.55177 | 37169 ft | 427 kts | 210° |
| 2026-05-05 11:36 | 32.38966 | -13.58226 | 37170 ft | 426 kts | 210° |
| 2026-05-05 11:36 | 32.33633 | -13.61258 | 37169 ft | 425 kts | 210° |
| 2026-05-05 11:37 | 32.28306 | -13.64278 | 37168 ft | 424 kts | 210° |
| 2026-05-05 11:37 | 32.22992 | -13.67291 | 37170 ft | 423 kts | 210° |
| 2026-05-05 11:38 | 32.17700 | -13.70296 | 37167 ft | 421 kts | 210° |
| 2026-05-05 11:38 | 32.12418 | -13.73290 | 37167 ft | 420 kts | 210° |
| 2026-05-05 11:39 | 32.07152 | -13.76261 | 37167 ft | 419 kts | 210° |
| 2026-05-05 11:39 | 32.01933 | -13.79210 | 37163 ft | 418 kts | 211° |
| 2026-05-05 11:40 | 31.96695 | -13.82170 | 37160 ft | 417 kts | 211° |
| 2026-05-05 11:40 | 31.91470 | -13.85116 | 37161 ft | 416 kts | 211° |
| 2026-05-05 11:41 | 31.86255 | -13.88048 | 37159 ft | 415 kts | 211° |
| 2026-05-05 11:41 | 31.81052 | -13.90966 | 37159 ft | 414 kts | 211° |
| 2026-05-05 11:42 | 31.75852 | -13.93872 | 37158 ft | 413 kts | 211° |
| 2026-05-05 11:42 | 31.70680 | -13.96775 | 37154 ft | 412 kts | 211° |
| 2026-05-05 11:43 | 31.65520 | -13.99673 | 37158 ft | 411 kts | 211° |
| 2026-05-05 11:43 | 31.60358 | -14.02552 | 37147 ft | 410 kts | 211° |
| 2026-05-05 11:44 | 31.55206 | -14.05418 | 37147 ft | 409 kts | 211° |
| 2026-05-05 11:44 | 31.50066 | -14.08281 | 37145 ft | 409 kts | 211° |
| 2026-05-05 11:45 | 31.44938 | -14.11143 | 37146 ft | 408 kts | 211° |
| 2026-05-05 11:45 | 31.39812 | -14.13996 | 37151 ft | 407 kts | 211° |
| 2026-05-05 11:46 | 31.34692 | -14.16831 | 37147 ft | 407 kts | 211° |
| 2026-05-05 11:46 | 31.29582 | -14.19664 | 37150 ft | 406 kts | 212° |
| 2026-05-05 11:47 | 31.24491 | -14.22498 | 37146 ft | 405 kts | 212° |
| 2026-05-05 11:47 | 31.19437 | -14.25304 | 37147 ft | 404 kts | 212° |
| 2026-05-05 11:48 | 31.11820 | -14.29506 | 37150 ft | 403 kts | 212° |
| 2026-05-05 11:48 | 31.06753 | -14.32295 | 37146 ft | 402 kts | 212° |
| 2026-05-05 11:49 | 31.01706 | -14.35083 | 37146 ft | 401 kts | 212° |
| 2026-05-05 11:49 | 30.96667 | -14.37863 | 37144 ft | 400 kts | 212° |
| 2026-05-05 11:50 | 30.91638 | -14.40622 | 37141 ft | 399 kts | 212° |
| 2026-05-05 11:50 | 30.87445 | -14.42945 | 37140 ft | 397 kts | 213° |
| 2026-05-05 11:51 | 30.82507 | -14.45810 | 37141 ft | 395 kts | 214° |
| 2026-05-05 11:51 | 30.77605 | -14.48694 | 37138 ft | 395 kts | 213° |
| 2026-05-05 11:52 | 30.72699 | -14.51543 | 37141 ft | 394 kts | 213° |
| 2026-05-05 11:52 | 30.67795 | -14.54374 | 37139 ft | 393 kts | 213° |
| 2026-05-05 11:53 | 30.62900 | -14.57180 | 37138 ft | 392 kts | 213° |
| 2026-05-05 11:53 | 30.58021 | -14.59982 | 37137 ft | 391 kts | 214° |
| 2026-05-05 11:54 | 30.53160 | -14.62773 | 37145 ft | 389 kts | 214° |
| 2026-05-05 11:54 | 30.48309 | -14.65556 | 37139 ft | 388 kts | 214° |
| 2026-05-05 11:55 | 30.43474 | -14.68330 | 37136 ft | 387 kts | 214° |
| 2026-05-05 11:55 | 30.38661 | -14.71098 | 37137 ft | 386 kts | 214° |
| 2026-05-05 11:56 | 30.33852 | -14.73855 | 37133 ft | 385 kts | 214° |
| 2026-05-05 11:56 | 30.29056 | -14.76596 | 37135 ft | 384 kts | 214° |
| 2026-05-05 11:57 | 30.24266 | -14.79334 | 37128 ft | 383 kts | 214° |
| 2026-05-05 11:57 | 30.19492 | -14.82060 | 37130 ft | 383 kts | 214° |
| 2026-05-05 11:58 | 30.14721 | -14.84771 | 37127 ft | 382 kts | 214° |
| 2026-05-05 11:58 | 30.09960 | -14.87478 | 37128 ft | 381 kts | 214° |
| 2026-05-05 11:59 | 30.05214 | -14.90180 | 37124 ft | 380 kts | 215° |
| 2026-05-05 11:59 | 30.00478 | -14.92873 | 37129 ft | 379 kts | 215° |
| 2026-05-05 12:00 | 29.95745 | -14.95563 | 37127 ft | 379 kts | 215° |
| 2026-05-05 12:00 | 29.91018 | -14.98245 | 37126 ft | 378 kts | 215° |
| 2026-05-05 12:01 | 29.86292 | -15.00922 | 37123 ft | 378 kts | 215° |
| 2026-05-05 12:01 | 29.81573 | -15.03593 | 37124 ft | 378 kts | 215° |
| 2026-05-05 12:02 | 29.76858 | -15.06256 | 37124 ft | 377 kts | 215° |
| 2026-05-05 12:02 | 29.72145 | -15.08911 | 37119 ft | 377 kts | 215° |
| 2026-05-05 12:03 | 29.67438 | -15.11560 | 37120 ft | 377 kts | 215° |
| 2026-05-05 12:03 | 29.62737 | -15.14208 | 37118 ft | 376 kts | 215° |
| 2026-05-05 12:04 | 29.58037 | -15.16858 | 37111 ft | 376 kts | 215° |
| 2026-05-05 12:04 | 29.53338 | -15.19492 | 37112 ft | 376 kts | 215° |
| 2026-05-05 12:05 | 29.48646 | -15.22130 | 37116 ft | 375 kts | 215° |
| 2026-05-05 12:05 | 29.43966 | -15.24772 | 37115 ft | 375 kts | 215° |
| 2026-05-05 12:06 | 29.39281 | -15.27399 | 37114 ft | 375 kts | 215° |
| 2026-05-05 12:06 | 29.34620 | -15.30003 | 37110 ft | 375 kts | 215° |
| 2026-05-05 12:07 | 29.29937 | -15.32628 | 37111 ft | 375 kts | 215° |
| 2026-05-05 12:07 | 29.25243 | -15.35246 | 37109 ft | 375 kts | 215° |
| 2026-05-05 12:08 | 29.20551 | -15.37862 | 37108 ft | 375 kts | 215° |
| 2026-05-05 12:08 | 29.15858 | -15.40477 | 37102 ft | 375 kts | 215° |
| 2026-05-05 12:09 | 29.11163 | -15.43095 | 37105 ft | 375 kts | 215° |
| 2026-05-05 12:09 | 29.06468 | -15.45705 | 37105 ft | 375 kts | 215° |
| 2026-05-05 12:10 | 29.01765 | -15.48313 | 37104 ft | 376 kts | 215° |
| 2026-05-05 12:10 | 28.97071 | -15.50927 | 37104 ft | 376 kts | 215° |
| 2026-05-05 12:11 | 28.92363 | -15.53544 | 37099 ft | 376 kts | 215° |
| 2026-05-05 12:11 | 28.87653 | -15.56144 | 37100 ft | 376 kts | 215° |
| 2026-05-05 12:12 | 28.82941 | -15.58751 | 37102 ft | 376 kts | 215° |
| 2026-05-05 12:12 | 28.78230 | -15.61364 | 37100 ft | 377 kts | 215° |
| 2026-05-05 12:13 | 28.73513 | -15.63973 | 37102 ft | 377 kts | 214° |
| 2026-05-05 12:13 | 28.68794 | -15.66576 | 37096 ft | 377 kts | 214° |
| 2026-05-05 12:14 | 28.64069 | -15.69175 | 37088 ft | 377 kts | 214° |
| 2026-05-05 12:14 | 28.59345 | -15.71779 | 37094 ft | 377 kts | 214° |
| 2026-05-05 12:15 | 28.54619 | -15.74377 | 37090 ft | 377 kts | 214° |
| 2026-05-05 12:15 | 28.49887 | -15.76977 | 37094 ft | 378 kts | 214° |
| 2026-05-05 12:16 | 28.45128 | -15.79594 | 37089 ft | 378 kts | 214° |
| 2026-05-05 12:16 | 28.40394 | -15.82194 | 37088 ft | 378 kts | 214° |
| 2026-05-05 12:17 | 28.35660 | -15.84788 | 37090 ft | 378 kts | 214° |
| 2026-05-05 12:17 | 28.30923 | -15.87377 | 37088 ft | 378 kts | 214° |
| 2026-05-05 12:18 | 28.26209 | -15.89949 | 37087 ft | 378 kts | 214° |
| 2026-05-05 12:18 | 28.21472 | -15.92541 | 37084 ft | 378 kts | 214° |
| 2026-05-05 12:19 | 28.16734 | -15.95130 | 37088 ft | 378 kts | 214° |
| 2026-05-05 12:19 | 28.11990 | -15.97713 | 37085 ft | 378 kts | 214° |
| 2026-05-05 12:20 | 28.07245 | -16.00296 | 37084 ft | 378 kts | 214° |
| 2026-05-05 12:20 | 28.02499 | -16.02874 | 37079 ft | 378 kts | 214° |
| 2026-05-05 12:21 | 27.97753 | -16.05455 | 37076 ft | 378 kts | 214° |
| 2026-05-05 12:21 | 27.93005 | -16.08037 | 37079 ft | 378 kts | 214° |
| 2026-05-05 12:22 | 27.88258 | -16.10613 | 37079 ft | 379 kts | 214° |
| 2026-05-05 12:22 | 27.83513 | -16.13188 | 37075 ft | 378 kts | 214° |
| 2026-05-05 12:23 | 27.78764 | -16.15764 | 37081 ft | 379 kts | 214° |
| 2026-05-05 12:23 | 27.74013 | -16.18332 | 37076 ft | 379 kts | 214° |
| 2026-05-05 12:24 | 27.69262 | -16.20900 | 37072 ft | 379 kts | 214° |
| 2026-05-05 12:24 | 27.64506 | -16.23466 | 37077 ft | 379 kts | 214° |
| 2026-05-05 12:25 | 27.59754 | -16.26028 | 37074 ft | 379 kts | 214° |
| 2026-05-05 12:25 | 27.54993 | -16.28590 | 37071 ft | 379 kts | 214° |
| 2026-05-05 12:26 | 27.50240 | -16.31153 | 37072 ft | 379 kts | 214° |
| 2026-05-05 12:26 | 27.45481 | -16.33711 | 37072 ft | 379 kts | 214° |
| 2026-05-05 12:27 | 27.40719 | -16.36268 | 37072 ft | 379 kts | 214° |
| 2026-05-05 12:27 | 27.35958 | -16.38831 | 37071 ft | 379 kts | 214° |
| 2026-05-05 12:28 | 27.31195 | -16.41381 | 37069 ft | 379 kts | 214° |
| 2026-05-05 12:28 | 27.26425 | -16.43935 | 37070 ft | 379 kts | 214° |
| 2026-05-05 12:29 | 27.21661 | -16.46487 | 37069 ft | 380 kts | 214° |
| 2026-05-05 12:29 | 27.17693 | -16.48604 | 37071 ft | 380 kts | 214° |
| 2026-05-05 12:30 | 27.12915 | -16.51149 | 37070 ft | 380 kts | 213° |
| 2026-05-05 12:30 | 27.08143 | -16.53700 | 37070 ft | 380 kts | 214° |
| 2026-05-05 12:31 | 27.03371 | -16.56252 | 37073 ft | 380 kts | 214° |
| 2026-05-05 12:31 | 26.98595 | -16.58802 | 37071 ft | 380 kts | 213° |
| 2026-05-05 12:32 | 26.93807 | -16.61340 | 37071 ft | 381 kts | 213° |
| 2026-05-05 12:32 | 26.89023 | -16.63883 | 37071 ft | 381 kts | 214° |
| 2026-05-05 12:33 | 26.84240 | -16.66433 | 37070 ft | 381 kts | 213° |
| 2026-05-05 12:33 | 26.79455 | -16.68974 | 37072 ft | 381 kts | 213° |
| 2026-05-05 12:34 | 26.74662 | -16.71513 | 37069 ft | 381 kts | 213° |
| 2026-05-05 12:34 | 26.69865 | -16.74047 | 37065 ft | 381 kts | 213° |
| 2026-05-05 12:35 | 26.65069 | -16.76585 | 37067 ft | 381 kts | 213° |
| 2026-05-05 12:35 | 26.60271 | -16.79118 | 37066 ft | 382 kts | 213° |
| 2026-05-05 12:36 | 26.55470 | -16.81652 | 37067 ft | 382 kts | 213° |
| 2026-05-05 12:36 | 26.50665 | -16.84190 | 37063 ft | 382 kts | 213° |
| 2026-05-05 12:37 | 26.45859 | -16.86721 | 37062 ft | 382 kts | 213° |
| 2026-05-05 12:37 | 26.41050 | -16.89252 | 37063 ft | 382 kts | 213° |
| 2026-05-05 12:38 | 26.36241 | -16.91778 | 37063 ft | 382 kts | 213° |
| 2026-05-05 12:38 | 26.31424 | -16.94302 | 37067 ft | 382 kts | 213° |
| 2026-05-05 12:39 | 26.26611 | -16.96834 | 37058 ft | 382 kts | 213° |
| 2026-05-05 12:39 | 26.21799 | -16.99366 | 37057 ft | 383 kts | 213° |
| 2026-05-05 12:40 | 26.16981 | -17.01887 | 37064 ft | 383 kts | 213° |
| 2026-05-05 12:40 | 26.12164 | -17.04414 | 37069 ft | 383 kts | 213° |
| 2026-05-05 12:41 | 26.07346 | -17.06936 | 37063 ft | 383 kts | 213° |
| 2026-05-05 12:41 | 26.02528 | -17.09463 | 37063 ft | 383 kts | 213° |
| 2026-05-05 12:42 | 25.97712 | -17.11992 | 37060 ft | 383 kts | 213° |
| 2026-05-05 12:42 | 25.92891 | -17.14511 | 37059 ft | 383 kts | 213° |
| 2026-05-05 12:43 | 25.88064 | -17.17024 | 37056 ft | 383 kts | 213° |
| 2026-05-05 12:43 | 25.83241 | -17.19539 | 37057 ft | 383 kts | 213° |
| 2026-05-05 12:44 | 25.78411 | -17.22053 | 37054 ft | 383 kts | 213° |
| 2026-05-05 12:44 | 25.73588 | -17.24564 | 37052 ft | 383 kts | 213° |
| 2026-05-05 12:45 | 25.68756 | -17.27065 | 37052 ft | 383 kts | 213° |
| 2026-05-05 12:45 | 25.63923 | -17.29559 | 37051 ft | 383 kts | 213° |
| 2026-05-05 12:46 | 25.59097 | -17.32063 | 37051 ft | 383 kts | 213° |
| 2026-05-05 12:46 | 25.54266 | -17.34565 | 37050 ft | 383 kts | 213° |
| 2026-05-05 12:47 | 25.49437 | -17.37066 | 37049 ft | 383 kts | 213° |